createdAt,value
2023-04-01T00:01:37.627Z,99025.48
2023-04-01T00:04:23.892Z,99022.65
2023-04-01T00:07:11.023Z,99023.52
2023-04-01T00:09:57.419Z,99024.22
2023-04-01T00:12:44.577Z,99019.59
2023-04-01T00:15:31.299Z,99020.60
2023-04-01T00:18:17.993Z,99019.95
2023-04-01T00:21:05.090Z,99018.28
2023-04-01T00:23:52.346Z,99022.81
2023-04-01T00:26:38.823Z,99022.02
2023-04-01T00:29:29.259Z,99015.52
2023-04-01T00:32:16.245Z,99014.73
2023-04-01T00:35:02.530Z,99016.73
2023-04-01T00:37:49.606Z,99016.20
2023-04-01T00:40:40.380Z,99013.39
2023-04-01T00:43:27.108Z,99016.05
2023-04-01T00:46:14.297Z,99015.41
2023-04-01T00:49:01.967Z,99010.85
2023-04-01T00:51:51.306Z,99010.48
2023-04-01T00:54:39.798Z,99004.42
2023-04-01T00:57:35.981Z,99014.23
2023-04-01T01:00:22.492Z,99012.81
2023-04-01T01:03:09.176Z,99009.96
2023-04-01T01:06:22.911Z,99007.86
2023-04-01T01:09:52.175Z,99002.73
2023-04-01T01:13:06.652Z,99003.54
2023-04-01T01:16:05.151Z,99000.29
2023-04-01T01:19:10.702Z,98999.91
2023-04-01T01:22:16.210Z,98998.66
2023-04-01T01:25:22.266Z,99003.80
2023-04-01T01:28:31.065Z,99004.63
2023-04-01T01:31:49.644Z,99004.29
2023-04-01T01:34:49.452Z,99003.94
2023-04-01T01:37:38.306Z,99005.60
2023-04-01T01:40:28.294Z,99006.41
2023-04-01T01:43:20.715Z,99006.23
2023-04-01T01:46:13.055Z,99003.89
2023-04-01T01:49:02.649Z,99003.09
2023-04-01T01:51:49.681Z,99005.05
2023-04-01T01:54:36.461Z,99006.70
2023-04-01T01:57:29.736Z,99011.21
2023-04-01T02:00:20.015Z,99010.39
2023-04-01T02:03:08.144Z,99009.63
2023-04-01T02:05:58.214Z,99009.77
2023-04-01T02:08:59.178Z,99002.78
2023-04-01T02:12:02.317Z,99010.79
2023-04-01T02:15:01.812Z,99009.30
2023-04-01T02:17:50.509Z,99009.76
2023-04-01T02:20:39.561Z,99007.75
2023-04-01T02:23:27.672Z,99010.01
2023-04-01T02:26:15.739Z,99015.05
2023-04-01T02:29:05.633Z,99011.65
2023-04-01T02:31:54.138Z,99012.65
2023-04-01T02:34:41.407Z,99012.58
2023-04-01T02:37:27.985Z,99018.89
2023-04-01T02:40:16.635Z,99018.48
2023-04-01T02:43:03.532Z,99023.77
2023-04-01T02:45:50.308Z,99021.47
2023-04-01T02:48:36.753Z,99024.85
2023-04-01T02:51:23.341Z,99027.87
2023-04-01T02:54:09.979Z,99028.20
2023-04-01T02:56:57.515Z,99034.44
2023-04-01T02:59:44.240Z,99035.09
2023-04-01T03:02:30.930Z,99035.95
2023-04-01T03:05:17.701Z,99036.95
2023-04-01T03:08:04.736Z,99041.09
2023-04-01T03:10:51.000Z,99040.29
2023-04-01T03:13:38.083Z,99044.48
2023-04-01T03:16:24.696Z,99045.00
2023-04-01T03:19:11.609Z,99045.35
2023-04-01T03:21:58.214Z,99047.58
2023-04-01T03:24:44.463Z,99047.74
2023-04-01T03:27:32.598Z,99048.00
2023-04-01T03:30:18.951Z,99045.96
2023-04-01T03:33:08.509Z,99051.41
2023-04-01T03:35:55.872Z,99052.30
2023-04-01T03:38:42.577Z,99053.05
2023-04-01T03:41:28.992Z,99056.10
2023-04-01T03:44:15.804Z,99059.23
2023-04-01T03:47:02.761Z,99059.16
2023-04-01T03:49:49.793Z,99063.51
2023-04-01T03:52:36.114Z,99069.67
2023-04-01T03:55:22.980Z,99069.06
2023-04-01T03:58:10.440Z,99070.93
2023-04-01T04:00:56.763Z,99080.87
2023-04-01T04:03:43.086Z,99085.66
2023-04-01T04:06:30.258Z,99087.46
2023-04-01T04:09:16.752Z,99087.42
2023-04-01T04:12:03.457Z,99089.63
2023-04-01T04:14:50.195Z,99094.63
2023-04-01T04:17:36.923Z,99097.94
2023-04-01T04:20:23.783Z,99097.52
2023-04-01T04:23:10.261Z,99103.60
2023-04-01T04:26:08.840Z,99102.26
2023-04-01T04:28:56.522Z,99104.61
2023-04-01T04:31:44.406Z,99104.57
2023-04-01T04:34:31.156Z,99114.17
2023-04-01T04:37:17.763Z,99116.95
2023-04-01T04:40:05.094Z,99121.13
2023-04-01T04:42:51.757Z,99122.86
2023-04-01T04:45:38.445Z,99126.65
2023-04-01T04:48:24.958Z,99129.27
2023-04-01T04:51:19.977Z,99129.88
2023-04-01T04:54:07.903Z,99131.73
2023-04-01T04:57:14.515Z,99133.91
2023-04-01T05:00:06.417Z,99137.56
2023-04-01T05:03:04.178Z,99138.02
2023-04-01T05:05:53.478Z,99143.59
2023-04-01T05:08:41.449Z,99146.61
2023-04-01T05:11:28.356Z,99150.58
2023-04-01T05:14:17.023Z,99156.34
2023-04-01T05:17:13.083Z,99160.23
2023-04-01T05:19:59.648Z,99166.84
2023-04-01T05:22:46.629Z,99164.52
2023-04-01T05:25:33.531Z,99168.02
2023-04-01T05:28:21.390Z,99171.48
2023-04-01T05:31:09.292Z,99174.33
2023-04-01T05:33:58.751Z,99175.27
2023-04-01T05:36:45.519Z,99174.95
2023-04-01T05:39:32.170Z,99176.70
2023-04-01T05:42:18.874Z,99174.76
2023-04-01T05:45:06.810Z,99177.03
2023-04-01T05:48:12.423Z,99180.89
2023-04-01T05:51:00.542Z,99186.42
2023-04-01T05:53:46.955Z,99188.52
2023-04-01T05:56:33.884Z,99193.48
2023-04-01T05:59:20.467Z,99193.58
2023-04-01T06:02:06.965Z,99195.86
2023-04-01T06:05:11.009Z,99201.54
2023-04-01T06:08:07.193Z,99204.40
2023-04-01T06:10:56.811Z,99203.12
2023-04-01T06:13:51.216Z,99209.51
2023-04-01T06:16:47.501Z,99214.59
2023-04-01T06:20:06.568Z,99215.52
2023-04-01T06:22:54.940Z,99218.99
2023-04-01T06:26:12.130Z,99218.39
2023-04-01T06:29:01.374Z,99222.27
2023-04-01T06:32:07.640Z,99226.48
2023-04-01T06:35:36.040Z,99224.84
2023-04-01T06:38:48.206Z,99232.73
2023-04-01T06:41:38.870Z,99235.59
2023-04-01T06:44:45.361Z,99242.02
2023-04-01T06:48:27.492Z,99236.52
2023-04-01T06:51:57.652Z,99246.17
2023-04-01T06:55:10.020Z,99248.33
2023-04-01T06:58:32.578Z,99248.56
2023-04-01T07:01:25.097Z,99253.58
2023-04-01T07:04:24.369Z,99251.34
2023-04-01T07:07:28.218Z,99255.33
2023-04-01T07:10:32.276Z,99260.75
2023-04-01T07:13:54.210Z,99266.47
2023-04-01T07:16:46.188Z,99266.34
2023-04-01T07:19:43.507Z,99269.94
2023-04-01T07:22:41.894Z,99269.91
2023-04-01T07:25:46.996Z,99276.35
2023-04-01T07:28:54.089Z,99276.30
2023-04-01T07:32:05.931Z,99278.29
2023-04-01T07:35:15.644Z,99278.41
2023-04-01T07:38:16.068Z,99280.91
2023-04-01T07:41:12.220Z,99281.56
2023-04-01T07:44:27.994Z,99288.93
2023-04-01T07:47:22.855Z,99298.94
2023-04-01T07:50:19.532Z,99302.30
2023-04-01T07:53:39.332Z,99305.20
2023-04-01T07:56:46.960Z,99313.15
2023-04-01T07:59:56.150Z,99316.80
2023-04-01T08:03:06.554Z,99319.03
2023-04-01T08:06:16.136Z,99316.79
2023-04-01T08:09:31.823Z,99331.81
2023-04-01T08:13:22.347Z,99332.58
2023-04-01T08:16:58.159Z,99337.10
2023-04-01T08:20:18.579Z,99346.73
2023-04-01T08:23:28.152Z,99353.70
2023-04-01T08:26:27.417Z,99351.21
2023-04-01T08:29:24.434Z,99360.49
2023-04-01T08:32:17.041Z,99358.05
2023-04-01T08:35:16.951Z,99362.49
2023-04-01T08:38:34.262Z,99362.58
2023-04-01T08:41:43.649Z,99367.61
2023-04-01T08:45:37.280Z,99372.69
2023-04-01T08:48:42.989Z,99374.31
2023-04-01T08:52:04.005Z,99372.88
2023-04-01T08:55:21.102Z,99373.48
2023-04-01T08:58:20.967Z,99384.59
2023-04-01T09:01:33.720Z,99385.77
2023-04-01T09:04:40.242Z,99389.92
2023-04-01T09:07:45.348Z,99390.85
2023-04-01T09:10:41.053Z,99394.42
2023-04-01T09:14:19.689Z,99393.73
2023-04-01T09:17:32.808Z,99397.52
2023-04-01T09:20:43.837Z,99392.25
2023-04-01T09:23:49.807Z,99401.38
2023-04-01T09:26:53.491Z,99405.73
2023-04-01T09:29:49.330Z,99409.09
2023-04-01T09:33:12.914Z,99414.72
2023-04-01T09:36:22.973Z,99414.34
2023-04-01T09:39:18.375Z,99420.45
2023-04-01T09:42:22.489Z,99424.47
2023-04-01T09:45:41.490Z,99433.19
2023-04-01T09:48:56.575Z,99433.89
2023-04-01T09:51:56.945Z,99440.23
2023-04-01T09:55:07.767Z,99443.13
2023-04-01T09:58:09.319Z,99443.84
2023-04-01T10:01:28.975Z,99446.52
2023-04-01T10:04:43.787Z,99452.88
2023-04-01T10:07:46.115Z,99454.92
2023-04-01T10:10:44.651Z,99456.89
2023-04-01T10:14:00.542Z,99464.96
2023-04-01T10:17:09.087Z,99464.90
2023-04-01T10:20:43.055Z,99462.58
2023-04-01T10:23:33.236Z,99465.27
2023-04-01T10:26:38.772Z,99464.47
2023-04-01T10:29:54.659Z,99459.55
2023-04-01T10:33:16.548Z,99468.48
2023-04-01T10:36:17.179Z,99472.73
2023-04-01T10:39:43.044Z,99470.53
2023-04-01T10:43:17.000Z,99472.89
2023-04-01T10:46:36.375Z,99469.73
2023-04-01T10:49:44.788Z,99473.92
2023-04-01T10:52:47.359Z,99480.92
2023-04-01T10:56:01.626Z,99483.61
2023-04-01T10:59:25.574Z,99481.48
2023-04-01T11:02:31.118Z,99484.54
2023-04-01T11:06:23.224Z,99488.56
2023-04-01T11:09:15.638Z,99493.74
2023-04-01T11:12:11.241Z,99497.39
2023-04-01T11:15:25.559Z,99498.72
2023-04-01T11:18:20.217Z,99505.70
2023-04-01T11:21:41.421Z,99499.33
2023-04-01T11:24:36.255Z,99512.80
2023-04-01T11:27:48.196Z,99515.61
2023-04-01T11:30:56.700Z,99525.05
2023-04-01T11:34:14.842Z,99526.45
2023-04-01T11:37:29.414Z,99531.11
2023-04-01T11:41:09.633Z,99539.12
2023-04-01T11:44:22.455Z,99552.63
2023-04-01T11:47:49.178Z,99552.31
2023-04-01T11:50:48.155Z,99554.27
2023-04-01T11:53:53.628Z,99558.02
2023-04-01T11:57:00.073Z,99560.25
2023-04-01T12:00:17.412Z,99564.27
2023-04-01T12:03:23.180Z,99563.79
2023-04-01T12:06:42.763Z,99569.67
2023-04-01T12:09:51.408Z,99567.13
2023-04-01T12:13:01.934Z,99567.23
2023-04-01T12:16:01.584Z,99569.23
2023-04-01T12:19:04.568Z,99572.45
2023-04-01T12:21:50.959Z,99577.92
2023-04-01T12:24:51.264Z,99586.98
2023-04-01T12:27:50.130Z,99596.01
2023-04-01T12:30:47.315Z,99596.66
2023-04-01T12:34:02.964Z,99601.52
2023-04-01T12:36:51.327Z,99605.50
2023-04-01T12:40:19.103Z,99608.02
2023-04-01T12:43:28.794Z,99606.09
2023-04-01T12:46:33.595Z,99601.20
2023-04-01T12:49:46.112Z,99608.94
2023-04-01T12:53:10.581Z,99613.12
2023-04-01T12:55:58.002Z,99614.38
2023-04-01T12:59:23.268Z,99621.83
2023-04-01T13:02:19.966Z,99623.61
2023-04-01T13:05:31.526Z,99623.23
2023-04-01T13:08:38.056Z,99631.94
2023-04-01T13:11:37.800Z,99634.49
2023-04-01T13:15:06.582Z,99639.77
2023-04-01T13:18:14.315Z,99646.50
2023-04-01T13:21:23.018Z,99648.69
2023-04-01T13:24:45.017Z,99653.80
2023-04-01T13:27:39.468Z,99654.63
2023-04-01T13:30:41.373Z,99655.88
2023-04-01T13:33:57.040Z,99658.15
2023-04-01T13:37:20.729Z,99660.77
2023-04-01T13:40:55.725Z,99667.30
2023-04-01T13:44:12.983Z,99667.67
2023-04-01T13:47:11.469Z,99656.56
2023-04-01T13:50:19.792Z,99677.48
2023-04-01T13:53:14.916Z,99683.84
2023-04-01T13:56:43.931Z,99677.51
2023-04-01T13:59:58.513Z,99687.39
2023-04-01T14:03:30.088Z,99699.80
2023-04-01T14:06:52.663Z,99709.11
2023-04-01T14:10:01.703Z,99710.55
2023-04-01T14:13:03.108Z,99716.69
2023-04-01T14:16:18.429Z,99709.80
2023-04-01T14:19:26.412Z,99718.84
2023-04-01T14:22:42.504Z,99720.27
2023-04-01T14:25:47.724Z,99721.53
2023-04-01T14:28:57.401Z,99729.60
2023-04-01T14:32:08.822Z,99726.90
2023-04-01T14:35:12.384Z,99734.75
2023-04-01T14:38:42.377Z,99735.89
2023-04-01T14:41:47.039Z,99743.07
2023-04-01T14:44:52.356Z,99747.83
2023-04-01T14:48:05.632Z,99751.66
2023-04-01T14:50:55.726Z,99753.28
2023-04-01T14:54:11.404Z,99758.21
2023-04-01T14:57:25.269Z,99758.52
2023-04-01T15:00:18.047Z,99768.63
2023-04-01T15:03:13.478Z,99772.86
2023-04-01T15:06:15.376Z,99779.23
2023-04-01T15:09:18.738Z,99770.41
2023-04-01T15:13:04.073Z,99785.91
2023-04-01T15:16:06.388Z,99788.35
2023-04-01T15:19:04.581Z,99794.54
2023-04-01T15:22:00.831Z,99809.58
2023-04-01T15:25:00.202Z,99811.88
2023-04-01T15:28:10.768Z,99813.89
2023-04-01T15:31:04.842Z,99820.98
2023-04-01T15:34:14.823Z,99820.27
2023-04-01T15:37:21.784Z,99830.38
2023-04-01T15:40:23.682Z,99831.77
2023-04-01T15:43:23.113Z,99835.69
2023-04-01T15:46:52.559Z,99842.42
2023-04-01T15:49:48.377Z,99848.73
2023-04-01T15:52:53.620Z,99856.81
2023-04-01T15:55:49.337Z,99855.54
2023-04-01T15:58:58.568Z,99858.85
2023-04-01T16:01:59.086Z,99871.27
2023-04-01T16:04:51.536Z,99872.36
2023-04-01T16:07:37.881Z,99877.73
2023-04-01T16:10:27.203Z,99884.74
2023-04-01T16:13:29.225Z,99886.94
2023-04-01T16:16:49.217Z,99891.32
2023-04-01T16:20:01.453Z,99899.60
2023-04-01T16:23:02.487Z,99901.52
2023-04-01T16:26:07.034Z,99901.28
2023-04-01T16:29:06.055Z,99908.52
2023-04-01T16:32:17.066Z,99920.20
2023-04-01T16:35:41.604Z,99923.27
2023-04-01T16:38:39.286Z,99927.11
2023-04-01T16:41:34.937Z,99928.73
2023-04-01T16:44:26.320Z,99926.20
2023-04-01T16:47:20.337Z,99943.16
2023-04-01T16:50:18.812Z,99951.45
2023-04-01T16:53:14.541Z,99956.30
2023-04-01T16:56:02.141Z,99961.61
2023-04-01T16:59:15.087Z,99967.39
2023-04-01T17:02:01.268Z,99973.13
2023-04-01T17:04:52.584Z,99974.48
2023-04-01T17:07:41.509Z,99983.09
2023-04-01T17:10:48.264Z,99984.23
2023-04-01T17:13:46.533Z,99994.83
2023-04-01T17:17:18.813Z,99999.17
2023-04-01T17:20:30.215Z,99997.82
2023-04-01T17:23:39.639Z,100000.20
2023-04-01T17:26:33.333Z,100004.67
2023-04-01T17:29:34.801Z,100008.17
2023-04-01T17:32:33.286Z,100017.77
2023-04-01T17:35:27.536Z,100018.01
2023-04-01T17:38:25.083Z,100025.61
2023-04-01T17:41:31.923Z,100030.78
2023-04-01T17:44:48.684Z,100039.23
2023-04-01T17:48:02.234Z,100044.28
2023-04-01T17:51:27.033Z,100051.92
2023-04-01T17:54:28.395Z,100060.60
2023-04-01T17:57:34.672Z,100067.70
2023-04-01T18:00:46.104Z,100056.66
2023-04-01T18:04:03.902Z,100063.11
2023-04-01T18:07:26.060Z,100080.20
2023-04-01T18:10:32.453Z,100084.27
2023-04-01T18:13:34.519Z,100091.97
2023-04-01T18:16:48.325Z,100089.33
2023-04-01T18:19:45.192Z,100098.00
2023-04-01T18:22:44.136Z,100106.63
2023-04-01T18:25:39.114Z,100109.05
2023-04-01T18:28:36.149Z,100116.23
2023-04-01T18:31:27.314Z,100123.47
2023-04-01T18:34:30.684Z,100128.02
2023-04-01T18:37:24.532Z,100128.77
2023-04-01T18:40:33.668Z,100134.56
2023-04-01T18:43:48.109Z,100137.27
2023-04-01T18:47:11.783Z,100144.06
2023-04-01T18:50:07.112Z,100148.50
2023-04-01T18:53:36.148Z,100144.63
2023-04-01T18:56:42.217Z,100156.88
2023-04-01T18:59:35.680Z,100162.16
2023-04-01T19:02:55.398Z,100164.42
2023-04-01T19:05:47.507Z,100169.65
2023-04-01T19:08:37.391Z,100172.12
2023-04-01T19:11:41.192Z,100175.23
2023-04-01T19:14:52.579Z,100181.70
2023-04-01T19:17:55.142Z,100180.48
2023-04-01T19:20:57.914Z,100186.67
2023-04-01T19:24:11.767Z,100187.15
2023-04-01T19:27:11.570Z,100197.02
2023-04-01T19:30:36.562Z,100205.46
2023-04-01T19:33:45.236Z,100209.20
2023-04-01T19:36:52.530Z,100216.52
2023-04-01T19:40:16.529Z,100217.20
2023-04-01T19:43:15.223Z,100221.59
2023-04-01T19:46:41.460Z,100222.77
2023-04-01T19:49:56.457Z,100233.02
2023-04-01T19:52:43.785Z,100237.04
2023-04-01T19:56:02.798Z,100235.41
2023-04-01T19:59:22.170Z,100241.61
2023-04-01T20:02:08.980Z,100245.23
2023-04-01T20:04:57.340Z,100247.48
2023-04-01T20:07:50.950Z,100252.77
2023-04-01T20:11:00.594Z,100255.45
2023-04-01T20:14:10.605Z,100250.61
2023-04-01T20:17:02.889Z,100265.94
2023-04-01T20:20:16.033Z,100263.95
2023-04-01T20:23:11.548Z,100274.29
2023-04-01T20:26:03.521Z,100274.19
2023-04-01T20:29:19.761Z,100283.85
2023-04-01T20:32:21.295Z,100286.60
2023-04-01T20:35:19.592Z,100288.06
2023-04-01T20:38:24.097Z,100294.44
2023-04-01T20:41:23.191Z,100289.65
2023-04-01T20:44:12.978Z,100288.45
2023-04-01T20:47:08.144Z,100294.42
2023-04-01T20:50:06.662Z,100295.05
2023-04-01T20:53:18.155Z,100301.55
2023-04-01T20:56:28.856Z,100302.68
2023-04-01T20:59:34.341Z,100303.60
2023-04-01T21:02:49.748Z,100305.42
2023-04-01T21:05:58.321Z,100310.23
2023-04-01T21:09:07.867Z,100304.02
2023-04-01T21:12:20.444Z,100314.36
2023-04-01T21:15:36.732Z,100318.57
2023-04-01T21:19:00.770Z,100323.40
2023-04-01T21:22:26.353Z,100327.05
2023-04-01T21:25:19.214Z,100328.67
2023-04-01T21:28:13.934Z,100333.15
2023-04-01T21:31:13.784Z,100332.56
2023-04-01T21:34:19.234Z,100338.36
2023-04-01T21:37:21.018Z,100337.82
2023-04-01T21:40:29.100Z,100341.83
2023-04-01T21:43:36.531Z,100343.88
2023-04-01T21:46:54.971Z,100341.71
2023-04-01T21:50:26.779Z,100343.02
2023-04-01T21:53:35.079Z,100347.36
2023-04-01T21:56:42.930Z,100352.77
2023-04-01T22:00:00.228Z,100352.56
2023-04-01T22:03:04.303Z,100361.94
2023-04-01T22:05:58.988Z,100363.46
2023-04-01T22:08:51.633Z,100361.86
2023-04-01T22:11:55.361Z,100357.52
2023-04-01T22:15:18.409Z,100362.38
2023-04-01T22:18:15.090Z,100366.57
2023-04-01T22:21:14.342Z,100365.44
2023-04-01T22:24:22.645Z,100371.99
2023-04-01T22:27:21.566Z,100376.02
2023-04-01T22:30:24.261Z,100379.45
2023-04-01T22:33:54.219Z,100386.09
2023-04-01T22:36:53.596Z,100388.25
2023-04-01T22:40:01.153Z,100392.18
2023-04-01T22:42:52.884Z,100392.96
2023-04-01T22:45:58.277Z,100395.24
2023-04-01T22:49:17.649Z,100399.35
2023-04-01T22:52:24.579Z,100404.21
2023-04-01T22:55:23.208Z,100409.55
2023-04-01T22:58:16.118Z,100400.65
2023-04-01T23:01:12.120Z,100410.50
2023-04-01T23:04:01.273Z,100412.39
2023-04-01T23:06:55.750Z,100417.27
2023-04-01T23:09:42.927Z,100420.88
2023-04-01T23:12:31.062Z,100421.61
2023-04-01T23:15:19.045Z,100429.70
2023-04-01T23:18:34.740Z,100429.09
2023-04-01T23:21:39.385Z,100432.22
2023-04-01T23:24:39.641Z,100434.20
2023-04-01T23:27:31.838Z,100436.83
2023-04-01T23:30:40.498Z,100437.04
2023-04-01T23:33:31.702Z,100444.16
2023-04-01T23:36:18.169Z,100450.02
2023-04-01T23:39:22.185Z,100449.61
2023-04-01T23:42:16.862Z,100448.27
2023-04-01T23:45:11.872Z,100448.31
2023-04-01T23:47:58.866Z,100457.95
2023-04-01T23:50:47.227Z,100468.02
2023-04-01T23:53:35.572Z,100468.90
2023-04-01T23:56:22.711Z,100469.67
2023-04-01T23:59:19.464Z,100470.55
